sensor_id;sensor_type;location;lat;lon;timestamp;P1;durP1;ratioP1;P2;durP2;ratioP2
44276;SDS011;29973;43.742;1.236;2023-06-22T00:01:58;4.57;;;2.33;;
44276;SDS011;29973;43.742;1.236;2023-06-22T00:04:24;8.35;;;2.72;;
44276;SDS011;29973;43.742;1.236;2023-06-22T00:06:50;9.45;;;2.42;;
44276;SDS011;29973;43.742;1.236;2023-06-22T00:09:16;12.60;;;2.60;;
44276;SDS011;29973;43.742;1.236;2023-06-22T00:11:42;6.53;;;2.80;;
44276;SDS011;29973;43.742;1.236;2023-06-22T00:14:07;9.25;;;2.92;;
44276;SDS011;29973;43.742;1.236;2023-06-22T00:16:33;8.98;;;2.38;;
44276;SDS011;29973;43.742;1.236;2023-06-22T00:18:59;6.18;;;2.78;;
44276;SDS011;29973;43.742;1.236;2023-06-22T00:21:26;4.88;;;2.40;;
44276;SDS011;29973;43.742;1.236;2023-06-22T00:23:52;8.13;;;2.47;;
44276;SDS011;29973;43.742;1.236;2023-06-22T00:26:18;9.85;;;2.70;;
44276;SDS011;29973;43.742;1.236;2023-06-22T00:28:45;6.35;;;2.50;;
44276;SDS011;29973;43.742;1.236;2023-06-22T00:31:11;6.10;;;2.83;;
44276;SDS011;29973;43.742;1.236;2023-06-22T00:33:37;8.95;;;2.90;;
44276;SDS011;29973;43.742;1.236;2023-06-22T00:36:04;9.90;;;2.67;;
44276;SDS011;29973;43.742;1.236;2023-06-22T00:38:30;7.75;;;2.65;;
44276;SDS011;29973;43.742;1.236;2023-06-22T00:40:56;7.57;;;2.95;;
44276;SDS011;29973;43.742;1.236;2023-06-22T00:43:22;13.88;;;2.80;;
44276;SDS011;29973;43.742;1.236;2023-06-22T00:45:47;8.73;;;2.05;;
44276;SDS011;29973;43.742;1.236;2023-06-22T00:48:13;13.63;;;3.30;;
44276;SDS011;29973;43.742;1.236;2023-06-22T00:50:40;8.80;;;2.92;;
44276;SDS011;29973;43.742;1.236;2023-06-22T00:53:06;8.10;;;2.53;;
44276;SDS011;29973;43.742;1.236;2023-06-22T00:55:37;9.43;;;2.85;;
44276;SDS011;29973;43.742;1.236;2023-06-22T00:58:04;5.47;;;2.78;;
44276;SDS011;29973;43.742;1.236;2023-06-22T01:00:33;7.75;;;2.50;;
44276;SDS011;29973;43.742;1.236;2023-06-22T01:02:59;5.82;;;2.60;;
44276;SDS011;29973;43.742;1.236;2023-06-22T01:05:25;5.55;;;2.22;;
44276;SDS011;29973;43.742;1.236;2023-06-22T01:08:05;4.05;;;2.10;;
44276;SDS011;29973;43.742;1.236;2023-06-22T01:15:58;6.88;;;2.50;;
44276;SDS011;29973;43.742;1.236;2023-06-22T01:18:29;3.05;;;1.88;;
44276;SDS011;29973;43.742;1.236;2023-06-22T01:20:58;4.10;;;2.50;;
44276;SDS011;29973;43.742;1.236;2023-06-22T01:29:08;9.65;;;2.25;;
44276;SDS011;29973;43.742;1.236;2023-06-22T01:31:37;5.35;;;2.10;;
44276;SDS011;29973;43.742;1.236;2023-06-22T01:34:06;7.97;;;2.03;;
44276;SDS011;29973;43.742;1.236;2023-06-22T01:36:33;7.07;;;1.85;;
44276;SDS011;29973;43.742;1.236;2023-06-22T01:38:59;8.23;;;2.38;;
44276;SDS011;29973;43.742;1.236;2023-06-22T01:41:27;7.90;;;2.20;;
44276;SDS011;29973;43.742;1.236;2023-06-22T01:43:55;5.28;;;2.03;;
44276;SDS011;29973;43.742;1.236;2023-06-22T01:46:21;5.93;;;1.98;;
44276;SDS011;29973;43.742;1.236;2023-06-22T01:48:47;10.38;;;2.17;;
44276;SDS011;29973;43.742;1.236;2023-06-22T01:51:14;8.07;;;2.28;;
44276;SDS011;29973;43.742;1.236;2023-06-22T01:53:41;7.85;;;1.83;;
44276;SDS011;29973;43.742;1.236;2023-06-22T01:56:07;7.32;;;2.15;;
44276;SDS011;29973;43.742;1.236;2023-06-22T01:58:33;5.47;;;1.88;;
44276;SDS011;29973;43.742;1.236;2023-06-22T02:01:11;5.63;;;1.90;;
44276;SDS011;29973;43.742;1.236;2023-06-22T02:03:43;6.70;;;2.33;;
44276;SDS011;29973;43.742;1.236;2023-06-22T02:06:17;8.45;;;2.63;;
44276;SDS011;29973;43.742;1.236;2023-06-22T02:08:49;7.97;;;2.47;;
44276;SDS011;29973;43.742;1.236;2023-06-22T02:11:21;9.63;;;2.60;;
44276;SDS011;29973;43.742;1.236;2023-06-22T02:13:48;9.27;;;2.58;;
44276;SDS011;29973;43.742;1.236;2023-06-22T02:16:15;3.80;;;2.20;;
44276;SDS011;29973;43.742;1.236;2023-06-22T02:18:49;13.05;;;2.50;;
44276;SDS011;29973;43.742;1.236;2023-06-22T02:21:16;13.73;;;2.58;;
44276;SDS011;29973;43.742;1.236;2023-06-22T02:23:43;7.95;;;2.17;;
44276;SDS011;29973;43.742;1.236;2023-06-22T02:26:08;4.53;;;2.30;;
44276;SDS011;29973;43.742;1.236;2023-06-22T02:28:34;7.38;;;2.45;;
44276;SDS011;29973;43.742;1.236;2023-06-22T02:31:00;8.85;;;2.33;;
44276;SDS011;29973;43.742;1.236;2023-06-22T02:33:26;10.45;;;2.75;;
44276;SDS011;29973;43.742;1.236;2023-06-22T02:35:52;13.80;;;2.95;;
44276;SDS011;29973;43.742;1.236;2023-06-22T02:38:18;10.25;;;3.15;;
44276;SDS011;29973;43.742;1.236;2023-06-22T02:40:45;9.88;;;3.40;;
44276;SDS011;29973;43.742;1.236;2023-06-22T02:43:11;9.93;;;3.00;;
44276;SDS011;29973;43.742;1.236;2023-06-22T02:45:37;15.70;;;3.40;;
44276;SDS011;29973;43.742;1.236;2023-06-22T02:48:03;8.82;;;3.88;;
44276;SDS011;29973;43.742;1.236;2023-06-22T02:50:29;5.80;;;3.10;;
44276;SDS011;29973;43.742;1.236;2023-06-22T02:52:55;5.25;;;2.83;;
44276;SDS011;29973;43.742;1.236;2023-06-22T02:55:20;14.65;;;2.88;;
44276;SDS011;29973;43.742;1.236;2023-06-22T02:57:46;12.60;;;3.35;;
44276;SDS011;29973;43.742;1.236;2023-06-22T03:00:13;6.72;;;2.92;;
44276;SDS011;29973;43.742;1.236;2023-06-22T03:02:46;6.03;;;2.53;;
44276;SDS011;29973;43.742;1.236;2023-06-22T03:05:12;12.85;;;3.15;;
44276;SDS011;29973;43.742;1.236;2023-06-22T03:07:42;7.88;;;2.90;;
44276;SDS011;29973;43.742;1.236;2023-06-22T03:10:11;9.63;;;2.90;;
44276;SDS011;29973;43.742;1.236;2023-06-22T03:12:38;15.93;;;3.50;;
44276;SDS011;29973;43.742;1.236;2023-06-22T03:15:05;17.75;;;3.63;;
44276;SDS011;29973;43.742;1.236;2023-06-22T03:17:33;11.07;;;3.85;;
44276;SDS011;29973;43.742;1.236;2023-06-22T03:20:00;10.07;;;3.90;;
44276;SDS011;29973;43.742;1.236;2023-06-22T03:22:26;14.25;;;4.15;;
44276;SDS011;29973;43.742;1.236;2023-06-22T03:24:51;15.23;;;5.10;;
44276;SDS011;29973;43.742;1.236;2023-06-22T03:27:17;10.02;;;5.40;;
44276;SDS011;29973;43.742;1.236;2023-06-22T03:29:43;18.08;;;5.25;;
44276;SDS011;29973;43.742;1.236;2023-06-22T03:32:09;14.13;;;5.82;;
44276;SDS011;29973;43.742;1.236;2023-06-22T03:34:35;17.75;;;5.97;;
44276;SDS011;29973;43.742;1.236;2023-06-22T03:37:01;16.45;;;6.55;;
44276;SDS011;29973;43.742;1.236;2023-06-22T03:39:28;17.88;;;6.68;;
44276;SDS011;29973;43.742;1.236;2023-06-22T03:41:53;18.58;;;7.10;;
44276;SDS011;29973;43.742;1.236;2023-06-22T03:44:19;15.13;;;6.45;;
44276;SDS011;29973;43.742;1.236;2023-06-22T03:46:45;21.23;;;6.80;;
44276;SDS011;29973;43.742;1.236;2023-06-22T03:49:11;17.25;;;6.78;;
44276;SDS011;29973;43.742;1.236;2023-06-22T03:51:36;17.40;;;7.68;;
44276;SDS011;29973;43.742;1.236;2023-06-22T03:54:02;18.45;;;7.40;;
44276;SDS011;29973;43.742;1.236;2023-06-22T03:56:28;16.50;;;7.00;;
44276;SDS011;29973;43.742;1.236;2023-06-22T03:58:53;12.70;;;7.97;;
44276;SDS011;29973;43.742;1.236;2023-06-22T04:01:19;21.65;;;8.10;;
44276;SDS011;29973;43.742;1.236;2023-06-22T04:03:45;16.58;;;8.18;;
44276;SDS011;29973;43.742;1.236;2023-06-22T04:06:13;24.40;;;9.52;;
44276;SDS011;29973;43.742;1.236;2023-06-22T04:08:38;22.83;;;8.73;;
44276;SDS011;29973;43.742;1.236;2023-06-22T04:11:04;20.25;;;8.82;;
44276;SDS011;29973;43.742;1.236;2023-06-22T04:13:30;14.65;;;8.80;;
44276;SDS011;29973;43.742;1.236;2023-06-22T04:15:55;21.48;;;9.73;;
44276;SDS011;29973;43.742;1.236;2023-06-22T04:18:21;26.02;;;9.85;;
44276;SDS011;29973;43.742;1.236;2023-06-22T04:20:47;26.65;;;9.60;;
44276;SDS011;29973;43.742;1.236;2023-06-22T04:23:13;22.70;;;9.18;;
44276;SDS011;29973;43.742;1.236;2023-06-22T04:25:39;15.90;;;9.07;;
44276;SDS011;29973;43.742;1.236;2023-06-22T04:28:04;17.70;;;8.82;;
44276;SDS011;29973;43.742;1.236;2023-06-22T04:30:32;19.60;;;8.65;;
44276;SDS011;29973;43.742;1.236;2023-06-22T04:32:58;20.67;;;8.77;;
44276;SDS011;29973;43.742;1.236;2023-06-22T04:35:25;17.65;;;8.48;;
44276;SDS011;29973;43.742;1.236;2023-06-22T04:37:52;17.27;;;7.90;;
44276;SDS011;29973;43.742;1.236;2023-06-22T04:40:20;20.20;;;8.00;;
44276;SDS011;29973;43.742;1.236;2023-06-22T04:42:47;20.00;;;8.75;;
44276;SDS011;29973;43.742;1.236;2023-06-22T04:45:18;18.83;;;8.27;;
44276;SDS011;29973;43.742;1.236;2023-06-22T04:47:44;12.52;;;7.00;;
44276;SDS011;29973;43.742;1.236;2023-06-22T04:50:13;14.57;;;7.03;;
44276;SDS011;29973;43.742;1.236;2023-06-22T04:52:39;14.38;;;7.70;;
44276;SDS011;29973;43.742;1.236;2023-06-22T04:55:05;15.70;;;7.28;;
44276;SDS011;29973;43.742;1.236;2023-06-22T04:57:32;16.23;;;8.32;;
44276;SDS011;29973;43.742;1.236;2023-06-22T05:00:01;17.60;;;7.47;;
44276;SDS011;29973;43.742;1.236;2023-06-22T05:02:38;15.20;;;7.65;;
44276;SDS011;29973;43.742;1.236;2023-06-22T05:05:04;11.90;;;7.38;;
44276;SDS011;29973;43.742;1.236;2023-06-22T05:07:35;12.43;;;7.35;;
44276;SDS011;29973;43.742;1.236;2023-06-22T05:10:04;15.27;;;7.47;;
44276;SDS011;29973;43.742;1.236;2023-06-22T05:12:30;15.52;;;7.20;;
44276;SDS011;29973;43.742;1.236;2023-06-22T05:14:56;20.02;;;6.95;;
44276;SDS011;29973;43.742;1.236;2023-06-22T05:17:22;10.23;;;7.22;;
44276;SDS011;29973;43.742;1.236;2023-06-22T05:19:48;14.20;;;7.03;;
44276;SDS011;29973;43.742;1.236;2023-06-22T05:22:14;17.60;;;6.72;;
44276;SDS011;29973;43.742;1.236;2023-06-22T05:24:40;11.55;;;7.40;;
44276;SDS011;29973;43.742;1.236;2023-06-22T05:27:06;11.25;;;6.55;;
44276;SDS011;29973;43.742;1.236;2023-06-22T05:29:32;15.93;;;7.22;;
44276;SDS011;29973;43.742;1.236;2023-06-22T05:31:58;12.75;;;7.00;;
44276;SDS011;29973;43.742;1.236;2023-06-22T05:34:24;12.48;;;7.22;;
44276;SDS011;29973;43.742;1.236;2023-06-22T05:36:49;14.02;;;7.75;;
44276;SDS011;29973;43.742;1.236;2023-06-22T05:39:15;12.07;;;7.15;;
44276;SDS011;29973;43.742;1.236;2023-06-22T05:41:41;16.52;;;7.22;;
44276;SDS011;29973;43.742;1.236;2023-06-22T05:44:08;17.27;;;8.18;;
44276;SDS011;29973;43.742;1.236;2023-06-22T05:46:34;12.50;;;7.35;;
44276;SDS011;29973;43.742;1.236;2023-06-22T05:48:59;11.10;;;7.75;;
44276;SDS011;29973;43.742;1.236;2023-06-22T05:51:25;14.30;;;7.75;;
44276;SDS011;29973;43.742;1.236;2023-06-22T05:53:51;12.27;;;8.05;;
44276;SDS011;29973;43.742;1.236;2023-06-22T05:56:16;12.93;;;8.05;;
44276;SDS011;29973;43.742;1.236;2023-06-22T05:58:42;16.52;;;8.32;;
44276;SDS011;29973;43.742;1.236;2023-06-22T06:01:08;7.85;;;6.10;;
44276;SDS011;29973;43.742;1.236;2023-06-22T06:03:34;15.70;;;8.70;;
44276;SDS011;29973;43.742;1.236;2023-06-22T06:06:05;12.70;;;7.90;;
44276;SDS011;29973;43.742;1.236;2023-06-22T06:08:32;14.90;;;8.02;;
44276;SDS011;29973;43.742;1.236;2023-06-22T06:10:57;13.35;;;7.75;;
44276;SDS011;29973;43.742;1.236;2023-06-22T06:13:23;15.60;;;8.32;;
44276;SDS011;29973;43.742;1.236;2023-06-22T06:15:49;14.55;;;8.00;;
44276;SDS011;29973;43.742;1.236;2023-06-22T06:18:16;9.40;;;6.97;;
44276;SDS011;29973;43.742;1.236;2023-06-22T06:20:42;9.75;;;6.45;;
44276;SDS011;29973;43.742;1.236;2023-06-22T06:23:08;8.57;;;6.78;;
44276;SDS011;29973;43.742;1.236;2023-06-22T06:25:33;10.40;;;6.80;;
44276;SDS011;29973;43.742;1.236;2023-06-22T06:27:59;10.57;;;6.05;;
44276;SDS011;29973;43.742;1.236;2023-06-22T06:30:25;12.65;;;5.95;;
44276;SDS011;29973;43.742;1.236;2023-06-22T06:32:51;10.25;;;5.90;;
44276;SDS011;29973;43.742;1.236;2023-06-22T06:35:17;11.38;;;6.22;;
44276;SDS011;29973;43.742;1.236;2023-06-22T06:37:44;11.45;;;6.57;;
44276;SDS011;29973;43.742;1.236;2023-06-22T06:42:40;11.50;;;6.57;;
44276;SDS011;29973;43.742;1.236;2023-06-22T06:45:09;9.10;;;6.15;;
44276;SDS011;29973;43.742;1.236;2023-06-22T06:47:45;13.60;;;6.82;;
44276;SDS011;29973;43.742;1.236;2023-06-22T06:50:12;11.65;;;6.30;;
44276;SDS011;29973;43.742;1.236;2023-06-22T06:52:37;13.48;;;6.72;;
44276;SDS011;29973;43.742;1.236;2023-06-22T06:55:04;12.45;;;5.82;;
44276;SDS011;29973;43.742;1.236;2023-06-22T06:57:34;9.83;;;6.20;;
44276;SDS011;29973;43.742;1.236;2023-06-22T07:00:02;9.02;;;6.07;;
44276;SDS011;29973;43.742;1.236;2023-06-22T07:02:33;9.13;;;6.10;;
44276;SDS011;29973;43.742;1.236;2023-06-22T07:04:59;11.90;;;6.35;;
44276;SDS011;29973;43.742;1.236;2023-06-22T07:07:25;11.73;;;5.85;;
44276;SDS011;29973;43.742;1.236;2023-06-22T07:09:51;8.48;;;5.13;;
44276;SDS011;29973;43.742;1.236;2023-06-22T07:12:18;9.90;;;5.68;;
44276;SDS011;29973;43.742;1.236;2023-06-22T07:14:44;8.90;;;5.22;;
44276;SDS011;29973;43.742;1.236;2023-06-22T07:17:10;11.45;;;5.95;;
44276;SDS011;29973;43.742;1.236;2023-06-22T07:19:36;6.60;;;5.13;;
44276;SDS011;29973;43.742;1.236;2023-06-22T07:22:01;8.85;;;5.40;;
44276;SDS011;29973;43.742;1.236;2023-06-22T07:24:27;11.35;;;5.78;;
44276;SDS011;29973;43.742;1.236;2023-06-22T07:26:53;14.93;;;5.45;;
44276;SDS011;29973;43.742;1.236;2023-06-22T07:29:21;10.27;;;5.47;;
44276;SDS011;29973;43.742;1.236;2023-06-22T07:31:50;10.63;;;5.80;;
44276;SDS011;29973;43.742;1.236;2023-06-22T07:34:21;9.65;;;5.95;;
44276;SDS011;29973;43.742;1.236;2023-06-22T07:36:47;9.30;;;5.75;;
44276;SDS011;29973;43.742;1.236;2023-06-22T07:39:13;11.02;;;5.63;;
44276;SDS011;29973;43.742;1.236;2023-06-22T07:41:40;10.10;;;6.40;;
44276;SDS011;29973;43.742;1.236;2023-06-22T07:44:08;13.07;;;6.25;;
44276;SDS011;29973;43.742;1.236;2023-06-22T07:46:34;10.95;;;6.13;;
44276;SDS011;29973;43.742;1.236;2023-06-22T07:49:00;9.32;;;5.57;;
44276;SDS011;29973;43.742;1.236;2023-06-22T07:51:27;12.07;;;6.03;;
44276;SDS011;29973;43.742;1.236;2023-06-22T07:53:57;12.25;;;6.15;;
44276;SDS011;29973;43.742;1.236;2023-06-22T07:56:24;15.43;;;7.18;;
44276;SDS011;29973;43.742;1.236;2023-06-22T07:58:49;13.15;;;6.78;;
44276;SDS011;29973;43.742;1.236;2023-06-22T08:01:15;12.25;;;7.05;;
44276;SDS011;29973;43.742;1.236;2023-06-22T08:03:42;8.95;;;6.43;;
44276;SDS011;29973;43.742;1.236;2023-06-22T08:06:08;14.10;;;7.40;;
44276;SDS011;29973;43.742;1.236;2023-06-22T08:08:35;11.73;;;7.10;;
44276;SDS011;29973;43.742;1.236;2023-06-22T08:11:01;13.18;;;7.43;;
44276;SDS011;29973;43.742;1.236;2023-06-22T08:13:27;12.63;;;7.45;;
44276;SDS011;29973;43.742;1.236;2023-06-22T08:15:52;11.75;;;7.18;;
44276;SDS011;29973;43.742;1.236;2023-06-22T08:18:18;13.95;;;6.63;;
44276;SDS011;29973;43.742;1.236;2023-06-22T08:20:44;13.30;;;6.88;;
44276;SDS011;29973;43.742;1.236;2023-06-22T08:23:10;13.45;;;6.55;;
44276;SDS011;29973;43.742;1.236;2023-06-22T08:25:36;10.38;;;6.93;;
44276;SDS011;29973;43.742;1.236;2023-06-22T08:28:02;15.10;;;7.13;;
44276;SDS011;29973;43.742;1.236;2023-06-22T08:30:28;14.00;;;7.40;;
44276;SDS011;29973;43.742;1.236;2023-06-22T08:32:54;12.82;;;7.40;;
44276;SDS011;29973;43.742;1.236;2023-06-22T08:35:21;13.13;;;7.80;;
44276;SDS011;29973;43.742;1.236;2023-06-22T08:37:48;12.95;;;6.88;;
44276;SDS011;29973;43.742;1.236;2023-06-22T08:40:22;12.20;;;8.10;;
44276;SDS011;29973;43.742;1.236;2023-06-22T08:42:48;12.95;;;7.65;;
44276;SDS011;29973;43.742;1.236;2023-06-22T08:45:15;14.35;;;8.48;;
44276;SDS011;29973;43.742;1.236;2023-06-22T08:47:41;10.73;;;7.60;;
44276;SDS011;29973;43.742;1.236;2023-06-22T08:50:08;8.10;;;6.53;;
44276;SDS011;29973;43.742;1.236;2023-06-22T08:52:37;12.73;;;7.75;;
44276;SDS011;29973;43.742;1.236;2023-06-22T08:55:06;10.30;;;7.22;;
44276;SDS011;29973;43.742;1.236;2023-06-22T08:57:33;12.93;;;7.72;;
44276;SDS011;29973;43.742;1.236;2023-06-22T09:00:02;9.13;;;7.05;;
44276;SDS011;29973;43.742;1.236;2023-06-22T09:02:30;12.15;;;7.55;;
44276;SDS011;29973;43.742;1.236;2023-06-22T09:04:56;11.85;;;7.05;;
44276;SDS011;29973;43.742;1.236;2023-06-22T09:07:23;14.55;;;7.47;;
44276;SDS011;29973;43.742;1.236;2023-06-22T09:09:50;13.80;;;7.53;;
44276;SDS011;29973;43.742;1.236;2023-06-22T09:12:16;11.98;;;7.07;;
44276;SDS011;29973;43.742;1.236;2023-06-22T09:14:45;9.95;;;6.50;;
44276;SDS011;29973;43.742;1.236;2023-06-22T09:17:11;11.35;;;6.68;;
44276;SDS011;29973;43.742;1.236;2023-06-22T09:19:37;9.07;;;6.75;;
44276;SDS011;29973;43.742;1.236;2023-06-22T09:22:03;8.82;;;6.43;;
44276;SDS011;29973;43.742;1.236;2023-06-22T09:24:31;15.35;;;7.45;;
44276;SDS011;29973;43.742;1.236;2023-06-22T09:26:57;14.40;;;6.82;;
44276;SDS011;29973;43.742;1.236;2023-06-22T09:29:22;9.55;;;6.25;;
44276;SDS011;29973;43.742;1.236;2023-06-22T09:31:48;9.93;;;6.65;;
44276;SDS011;29973;43.742;1.236;2023-06-22T09:34:14;10.75;;;6.00;;
44276;SDS011;29973;43.742;1.236;2023-06-22T09:36:44;10.13;;;6.57;;
44276;SDS011;29973;43.742;1.236;2023-06-22T09:39:10;9.23;;;6.30;;
44276;SDS011;29973;43.742;1.236;2023-06-22T09:41:36;15.02;;;5.85;;
44276;SDS011;29973;43.742;1.236;2023-06-22T09:44:02;9.43;;;5.97;;
44276;SDS011;29973;43.742;1.236;2023-06-22T09:46:28;9.65;;;6.00;;
44276;SDS011;29973;43.742;1.236;2023-06-22T09:48:53;10.00;;;6.00;;
44276;SDS011;29973;43.742;1.236;2023-06-22T09:51:19;8.30;;;5.35;;
44276;SDS011;29973;43.742;1.236;2023-06-22T09:53:46;6.00;;;4.82;;
44276;SDS011;29973;43.742;1.236;2023-06-22T09:56:13;8.80;;;5.25;;
44276;SDS011;29973;43.742;1.236;2023-06-22T09:58:42;11.50;;;5.25;;
44276;SDS011;29973;43.742;1.236;2023-06-22T10:01:08;7.63;;;4.80;;
44276;SDS011;29973;43.742;1.236;2023-06-22T10:03:35;7.47;;;4.20;;
44276;SDS011;29973;43.742;1.236;2023-06-22T10:06:01;9.02;;;4.60;;
44276;SDS011;29973;43.742;1.236;2023-06-22T10:08:27;6.75;;;4.07;;
44276;SDS011;29973;43.742;1.236;2023-06-22T10:10:53;7.93;;;4.85;;
44276;SDS011;29973;43.742;1.236;2023-06-22T10:13:18;13.27;;;4.72;;
44276;SDS011;29973;43.742;1.236;2023-06-22T10:15:44;6.13;;;4.18;;
44276;SDS011;29973;43.742;1.236;2023-06-22T10:18:16;5.55;;;4.10;;
44276;SDS011;29973;43.742;1.236;2023-06-22T10:20:43;9.70;;;4.43;;
44276;SDS011;29973;43.742;1.236;2023-06-22T10:23:09;7.38;;;4.75;;
44276;SDS011;29973;43.742;1.236;2023-06-22T10:25:35;11.18;;;3.83;;
44276;SDS011;29973;43.742;1.236;2023-06-22T10:28:00;4.50;;;2.65;;
44276;SDS011;29973;43.742;1.236;2023-06-22T10:30:26;4.28;;;3.35;;
44276;SDS011;29973;43.742;1.236;2023-06-22T10:32:53;5.97;;;3.05;;
44276;SDS011;29973;43.742;1.236;2023-06-22T10:35:19;5.70;;;3.13;;
44276;SDS011;29973;43.742;1.236;2023-06-22T10:37:45;4.57;;;3.08;;
44276;SDS011;29973;43.742;1.236;2023-06-22T10:40:12;7.43;;;2.78;;
44276;SDS011;29973;43.742;1.236;2023-06-22T10:42:40;3.55;;;2.90;;
44276;SDS011;29973;43.742;1.236;2023-06-22T10:45:06;5.15;;;3.22;;
44276;SDS011;29973;43.742;1.236;2023-06-22T10:47:33;10.48;;;3.60;;
44276;SDS011;29973;43.742;1.236;2023-06-22T10:49:59;4.22;;;3.00;;
44276;SDS011;29973;43.742;1.236;2023-06-22T10:52:25;8.20;;;2.78;;
44276;SDS011;29973;43.742;1.236;2023-06-22T10:54:50;3.85;;;2.78;;
44276;SDS011;29973;43.742;1.236;2023-06-22T10:57:17;5.90;;;3.30;;
44276;SDS011;29973;43.742;1.236;2023-06-22T10:59:43;5.22;;;2.95;;
44276;SDS011;29973;43.742;1.236;2023-06-22T11:02:09;4.28;;;2.80;;
44276;SDS011;29973;43.742;1.236;2023-06-22T11:04:35;3.92;;;2.80;;
44276;SDS011;29973;43.742;1.236;2023-06-22T11:07:01;3.05;;;2.35;;
44276;SDS011;29973;43.742;1.236;2023-06-22T11:09:26;10.23;;;2.30;;
44276;SDS011;29973;43.742;1.236;2023-06-22T11:11:52;3.38;;;2.53;;
44276;SDS011;29973;43.742;1.236;2023-06-22T11:14:21;5.38;;;3.00;;
44276;SDS011;29973;43.742;1.236;2023-06-22T11:16:47;5.45;;;2.50;;
44276;SDS011;29973;43.742;1.236;2023-06-22T11:19:13;7.15;;;2.67;;
44276;SDS011;29973;43.742;1.236;2023-06-22T11:21:39;3.42;;;2.70;;
44276;SDS011;29973;43.742;1.236;2023-06-22T11:24:04;4.45;;;2.75;;
44276;SDS011;29973;43.742;1.236;2023-06-22T11:26:30;3.65;;;2.83;;
44276;SDS011;29973;43.742;1.236;2023-06-22T11:28:57;3.88;;;3.00;;
44276;SDS011;29973;43.742;1.236;2023-06-22T11:31:23;3.38;;;2.95;;
44276;SDS011;29973;43.742;1.236;2023-06-22T11:33:49;5.05;;;3.03;;
44276;SDS011;29973;43.742;1.236;2023-06-22T11:36:15;3.72;;;2.90;;
44276;SDS011;29973;43.742;1.236;2023-06-22T11:38:41;8.07;;;3.17;;
44276;SDS011;29973;43.742;1.236;2023-06-22T11:41:08;6.57;;;2.95;;
44276;SDS011;29973;43.742;1.236;2023-06-22T11:43:34;2.97;;;2.60;;
44276;SDS011;29973;43.742;1.236;2023-06-22T11:46:04;5.53;;;3.30;;
44276;SDS011;29973;43.742;1.236;2023-06-22T11:48:30;5.10;;;3.17;;
44276;SDS011;29973;43.742;1.236;2023-06-22T11:50:56;3.33;;;2.88;;
44276;SDS011;29973;43.742;1.236;2023-06-22T11:53:23;6.22;;;3.10;;
44276;SDS011;29973;43.742;1.236;2023-06-22T11:55:50;4.88;;;3.17;;
44276;SDS011;29973;43.742;1.236;2023-06-22T11:58:15;4.57;;;3.15;;
44276;SDS011;29973;43.742;1.236;2023-06-22T12:00:41;7.50;;;3.33;;
44276;SDS011;29973;43.742;1.236;2023-06-22T12:03:07;7.63;;;3.25;;
44276;SDS011;29973;43.742;1.236;2023-06-22T12:05:34;4.82;;;3.00;;
44276;SDS011;29973;43.742;1.236;2023-06-22T12:08:00;4.72;;;3.17;;
44276;SDS011;29973;43.742;1.236;2023-06-22T12:10:26;5.60;;;3.25;;
44276;SDS011;29973;43.742;1.236;2023-06-22T12:12:55;4.80;;;2.75;;
44276;SDS011;29973;43.742;1.236;2023-06-22T12:15:22;3.92;;;2.75;;
44276;SDS011;29973;43.742;1.236;2023-06-22T12:17:48;6.70;;;2.92;;
44276;SDS011;29973;43.742;1.236;2023-06-22T12:20:14;5.82;;;2.92;;
44276;SDS011;29973;43.742;1.236;2023-06-22T12:22:40;3.85;;;2.70;;
44276;SDS011;29973;43.742;1.236;2023-06-22T12:25:06;4.68;;;2.67;;
44276;SDS011;29973;43.742;1.236;2023-06-22T12:27:35;4.35;;;2.50;;
44276;SDS011;29973;43.742;1.236;2023-06-22T12:30:02;3.33;;;2.35;;
44276;SDS011;29973;43.742;1.236;2023-06-22T12:32:28;2.78;;;2.15;;
44276;SDS011;29973;43.742;1.236;2023-06-22T12:34:54;2.25;;;1.77;;
44276;SDS011;29973;43.742;1.236;2023-06-22T12:37:20;6.03;;;2.80;;
44276;SDS011;29973;43.742;1.236;2023-06-22T12:39:46;2.63;;;2.05;;
44276;SDS011;29973;43.742;1.236;2023-06-22T12:42:11;3.50;;;2.58;;
44276;SDS011;29973;43.742;1.236;2023-06-22T12:44:38;3.05;;;1.95;;
44276;SDS011;29973;43.742;1.236;2023-06-22T12:47:07;3.10;;;2.63;;
44276;SDS011;29973;43.742;1.236;2023-06-22T12:49:36;4.45;;;2.60;;
44276;SDS011;29973;43.742;1.236;2023-06-22T12:52:02;2.78;;;2.03;;
44276;SDS011;29973;43.742;1.236;2023-06-22T12:54:28;10.35;;;2.50;;
44276;SDS011;29973;43.742;1.236;2023-06-22T12:56:54;6.78;;;2.92;;
44276;SDS011;29973;43.742;1.236;2023-06-22T12:59:21;4.72;;;2.50;;
44276;SDS011;29973;43.742;1.236;2023-06-22T13:01:46;4.32;;;2.63;;
44276;SDS011;29973;43.742;1.236;2023-06-22T13:04:12;2.42;;;1.77;;
44276;SDS011;29973;43.742;1.236;2023-06-22T13:06:44;3.35;;;2.40;;
44276;SDS011;29973;43.742;1.236;2023-06-22T13:09:17;4.88;;;2.55;;
44276;SDS011;29973;43.742;1.236;2023-06-22T13:11:46;4.38;;;2.50;;
44276;SDS011;29973;43.742;1.236;2023-06-22T13:14:14;4.30;;;2.95;;
44276;SDS011;29973;43.742;1.236;2023-06-22T13:16:41;4.40;;;3.10;;
44276;SDS011;29973;43.742;1.236;2023-06-22T13:19:07;4.25;;;2.80;;
44276;SDS011;29973;43.742;1.236;2023-06-22T13:21:33;3.28;;;2.75;;
44276;SDS011;29973;43.742;1.236;2023-06-22T13:23:59;3.08;;;2.75;;
44276;SDS011;29973;43.742;1.236;2023-06-22T13:26:32;5.32;;;3.03;;
44276;SDS011;29973;43.742;1.236;2023-06-22T13:29:00;4.25;;;3.28;;
44276;SDS011;29973;43.742;1.236;2023-06-22T13:31:26;4.25;;;3.13;;
44276;SDS011;29973;43.742;1.236;2023-06-22T13:33:52;6.00;;;3.13;;
44276;SDS011;29973;43.742;1.236;2023-06-22T13:36:18;5.95;;;3.05;;
44276;SDS011;29973;43.742;1.236;2023-06-22T13:38:44;4.82;;;2.58;;
44276;SDS011;29973;43.742;1.236;2023-06-22T13:41:10;4.82;;;2.97;;
44276;SDS011;29973;43.742;1.236;2023-06-22T13:43:35;5.07;;;3.45;;
44276;SDS011;29973;43.742;1.236;2023-06-22T13:46:01;4.72;;;3.10;;
44276;SDS011;29973;43.742;1.236;2023-06-22T13:48:27;4.65;;;2.80;;
44276;SDS011;29973;43.742;1.236;2023-06-22T13:50:53;4.88;;;3.08;;
44276;SDS011;29973;43.742;1.236;2023-06-22T13:53:19;5.35;;;2.97;;
44276;SDS011;29973;43.742;1.236;2023-06-22T13:55:45;4.95;;;2.70;;
44276;SDS011;29973;43.742;1.236;2023-06-22T13:58:12;5.28;;;3.03;;
44276;SDS011;29973;43.742;1.236;2023-06-22T14:00:38;4.40;;;3.38;;
44276;SDS011;29973;43.742;1.236;2023-06-22T14:03:04;5.30;;;3.00;;
44276;SDS011;29973;43.742;1.236;2023-06-22T14:05:30;7.30;;;3.08;;
44276;SDS011;29973;43.742;1.236;2023-06-22T14:07:55;4.47;;;3.63;;
44276;SDS011;29973;43.742;1.236;2023-06-22T14:10:21;12.02;;;3.15;;
44276;SDS011;29973;43.742;1.236;2023-06-22T14:12:47;6.28;;;3.63;;
44276;SDS011;29973;43.742;1.236;2023-06-22T14:15:12;6.70;;;3.42;;
44276;SDS011;29973;43.742;1.236;2023-06-22T14:17:38;3.97;;;3.22;;
44276;SDS011;29973;43.742;1.236;2023-06-22T14:20:05;5.35;;;3.65;;
44276;SDS011;29973;43.742;1.236;2023-06-22T14:22:33;6.97;;;3.90;;
44276;SDS011;29973;43.742;1.236;2023-06-22T14:25:00;4.80;;;3.45;;
44276;SDS011;29973;43.742;1.236;2023-06-22T14:27:26;4.90;;;3.50;;
44276;SDS011;29973;43.742;1.236;2023-06-22T14:29:52;4.35;;;3.47;;
44276;SDS011;29973;43.742;1.236;2023-06-22T14:32:18;5.30;;;3.30;;
44276;SDS011;29973;43.742;1.236;2023-06-22T14:34:43;4.80;;;2.30;;
44276;SDS011;29973;43.742;1.236;2023-06-22T14:37:10;2.67;;;2.42;;
44276;SDS011;29973;43.742;1.236;2023-06-22T14:39:36;5.03;;;2.88;;
44276;SDS011;29973;43.742;1.236;2023-06-22T14:42:03;3.65;;;2.63;;
44276;SDS011;29973;43.742;1.236;2023-06-22T14:44:30;3.85;;;2.85;;
44276;SDS011;29973;43.742;1.236;2023-06-22T14:46:56;4.68;;;2.78;;
44276;SDS011;29973;43.742;1.236;2023-06-22T14:49:23;8.88;;;3.38;;
44276;SDS011;29973;43.742;1.236;2023-06-22T14:51:50;6.20;;;3.10;;
44276;SDS011;29973;43.742;1.236;2023-06-22T14:54:18;3.63;;;3.10;;